createdAt,value
2022-08-17T00:02:26.242Z,97290.63
2022-08-17T00:04:54.280Z,97299.88
2022-08-17T00:07:20.969Z,97304.50
2022-08-17T00:09:47.643Z,97300.72
2022-08-17T00:12:42.907Z,97293.97
2022-08-17T00:15:01.265Z,97296.69
2022-08-17T00:17:28.016Z,97292.34
2022-08-17T00:19:54.693Z,97288.81
2022-08-17T00:22:34.522Z,97292.34
2022-08-17T00:25:09.226Z,97294.25
2022-08-17T00:27:37.010Z,97293.72
2022-08-17T00:30:05.862Z,97293.72
2022-08-17T00:33:22.801Z,97297.84
2022-08-17T00:35:32.870Z,97299.72
2022-08-17T00:37:59.419Z,97298.66
2022-08-17T00:40:26.508Z,97308.72
2022-08-17T00:43:17.511Z,97303.53
2022-08-17T00:45:45.313Z,97306.03
2022-08-17T00:48:29.823Z,97304.16
2022-08-17T00:51:35.025Z,97303.91
2022-08-17T00:54:11.062Z,97310.22
2022-08-17T00:56:47.627Z,97307.53
2022-08-17T00:59:19.425Z,97308.63
2022-08-17T01:01:47.993Z,97309.75
2022-08-17T01:04:16.429Z,97315.19
2022-08-17T01:06:43.173Z,97307.84
2022-08-17T01:09:09.885Z,97312.22
2022-08-17T01:11:37.700Z,97309.75
2022-08-17T01:14:04.293Z,97307.88
2022-08-17T01:16:32.544Z,97306.84
2022-08-17T01:22:35.253Z,97313.38
2022-08-17T01:25:07.084Z,97313.16
2022-08-17T01:27:35.493Z,97313.16
2022-08-17T01:30:58.930Z,97311.53
2022-08-17T01:32:53.834Z,97316.09
2022-08-17T01:35:20.401Z,97301.47
2022-08-17T01:37:47.110Z,97306.59
2022-08-17T01:40:33.016Z,97308.50
2022-08-17T01:43:04.069Z,97307.47
2022-08-17T01:45:33.896Z,97311.84
2022-08-17T01:48:00.895Z,97311.84
2022-08-17T01:50:35.144Z,97313.75
2022-08-17T01:53:11.272Z,97311.03
2022-08-17T01:55:59.613Z,97307.50
2022-08-17T01:58:26.189Z,97306.97
2022-08-17T02:01:00.777Z,97306.41
2022-08-17T02:03:29.825Z,97303.44
2022-08-17T02:05:56.987Z,97310.28
2022-08-17T02:08:37.359Z,97311.66
2022-08-17T02:11:11.592Z,97313.00
2022-08-17T02:13:38.391Z,97306.47
2022-08-17T02:16:05.219Z,97307.03
2022-08-17T02:18:31.779Z,97299.72
2022-08-17T02:20:58.605Z,97308.38
2022-08-17T02:23:28.511Z,97299.72
2022-08-17T02:25:57.620Z,97304.84
2022-08-17T02:28:24.223Z,97308.69
2022-08-17T02:31:00.938Z,97311.41
2022-08-17T02:33:43.022Z,97316.81
2022-08-17T02:36:12.248Z,97316.84
2022-08-17T02:38:39.883Z,97317.94
2022-08-17T02:41:06.848Z,97325.81
2022-08-17T02:43:33.534Z,97322.56
2022-08-17T02:46:00.155Z,97322.56
2022-08-17T02:48:28.168Z,97326.63
2022-08-17T02:50:58.986Z,97323.38
2022-08-17T02:53:25.898Z,97328.81
2022-08-17T02:55:53.017Z,97325.56
2022-08-17T02:58:34.505Z,97328.00
2022-08-17T03:01:04.891Z,97326.09
2022-08-17T03:03:31.678Z,97326.63
2022-08-17T03:05:58.294Z,97325.03
2022-08-17T03:08:25.643Z,97316.88
2022-08-17T03:10:52.412Z,97326.66
2022-08-17T03:13:18.976Z,97323.44
2022-08-17T03:15:46.879Z,97323.97
2022-08-17T03:18:19.174Z,97328.31
2022-08-17T03:23:40.993Z,97331.31
2022-08-17T03:26:12.350Z,97331.84
2022-08-17T03:28:42.006Z,97323.19
2022-08-17T03:31:08.597Z,97328.34
2022-08-17T03:33:35.199Z,97326.16
2022-08-17T03:36:01.819Z,97322.06
2022-08-17T03:38:28.494Z,97333.19
2022-08-17T03:40:59.469Z,97326.66
2022-08-17T03:43:32.632Z,97339.16
2022-08-17T03:46:34.178Z,97327.75
2022-08-17T03:49:23.992Z,97332.09
2022-08-17T03:52:10.082Z,97327.19
2022-08-17T03:54:55.466Z,97333.69
2022-08-17T03:57:22.073Z,97342.91
2022-08-17T03:59:48.750Z,97344.56
2022-08-17T04:02:29.685Z,97343.19
2022-08-17T04:04:56.765Z,97340.72
2022-08-17T04:07:25.892Z,97340.16
2022-08-17T04:09:52.481Z,97346.09
2022-08-17T04:12:21.553Z,97350.97
2022-08-17T04:14:53.679Z,97353.63
2022-08-17T04:17:24.316Z,97353.06
2022-08-17T04:19:51.703Z,97348.69
2022-08-17T04:22:31.794Z,97352.19
2022-08-17T04:25:32.301Z,97352.94
2022-08-17T04:28:00.406Z,97345.00
2022-08-17T04:30:29.833Z,97346.31
2022-08-17T04:33:05.818Z,97355.53
2022-08-17T04:35:39.298Z,97355.78
2022-08-17T04:38:07.778Z,97359.81
2022-08-17T04:40:54.112Z,97352.16
2022-08-17T04:43:22.813Z,97353.41
2022-08-17T04:45:58.467Z,97363.34
2022-08-17T04:48:36.308Z,97368.13
2022-08-17T04:51:26.183Z,97370.97
2022-08-17T04:53:55.963Z,97366.47
2022-08-17T04:56:25.127Z,97377.22
2022-08-17T04:58:54.266Z,97373.53
2022-08-17T05:01:24.589Z,97360.81
2022-08-17T05:03:56.517Z,97371.78
2022-08-17T05:06:23.284Z,97364.94
2022-08-17T05:08:49.947Z,97370.06
2022-08-17T05:11:16.787Z,97370.91
2022-08-17T05:13:43.636Z,97374.94
2022-08-17T05:16:11.228Z,97379.44
2022-08-17T05:18:38.986Z,97378.47
2022-08-17T05:24:40.753Z,97372.81
2022-08-17T05:27:10.504Z,97375.63
2022-08-17T05:29:44.359Z,97382.72
2022-08-17T05:32:38.419Z,97376.94
2022-08-17T05:35:00.607Z,97376.22
2022-08-17T05:37:27.725Z,97382.97
2022-08-17T05:39:54.730Z,97382.75
2022-08-17T05:42:21.588Z,97387.06
2022-08-17T05:44:48.257Z,97380.91
2022-08-17T05:47:14.905Z,97385.03
2022-08-17T05:49:41.555Z,97391.63
2022-08-17T05:52:23.661Z,97387.19
2022-08-17T05:55:16.565Z,97388.47
2022-08-17T05:57:52.979Z,97394.06
2022-08-17T06:00:26.236Z,97391.53
2022-08-17T06:03:12.268Z,97389.09
2022-08-17T06:05:59.020Z,97390.53
2022-08-17T06:08:37.768Z,97396.88
2022-08-17T06:11:13.435Z,97399.53
2022-08-17T06:13:54.713Z,97397.09
2022-08-17T06:16:34.238Z,97391.00
2022-08-17T06:19:05.532Z,97396.75
2022-08-17T06:21:39.642Z,97396.09
2022-08-17T06:24:20.332Z,97384.75
2022-08-17T06:26:48.019Z,97390.88
2022-08-17T06:29:37.322Z,97386.28
2022-08-17T06:32:12.172Z,97387.72
2022-08-17T06:34:41.398Z,97394.16
2022-08-17T06:37:32.492Z,97391.78
2022-08-17T06:40:28.004Z,97399.00
2022-08-17T06:43:26.234Z,97397.47
2022-08-17T06:46:11.673Z,97399.50
2022-08-17T06:48:45.415Z,97389.97
2022-08-17T06:51:37.917Z,97396.00
2022-08-17T06:54:17.956Z,97406.38
2022-08-17T06:57:10.633Z,97394.38
2022-08-17T06:59:55.340Z,97395.19
2022-08-17T07:03:02.552Z,97398.81
2022-08-17T07:05:44.617Z,97402.00
2022-08-17T07:08:44.655Z,97402.34
2022-08-17T07:11:16.389Z,97407.50
2022-08-17T07:13:58.216Z,97405.94
2022-08-17T07:16:38.773Z,97402.72
2022-08-17T07:19:07.423Z,97400.16
2022-08-17T07:21:52.704Z,97399.31
2022-08-17T07:25:37.601Z,97403.72
2022-08-17T07:28:06.983Z,97407.88
2022-08-17T07:30:45.504Z,97398.53
2022-08-17T07:33:24.742Z,97397.84
2022-08-17T07:35:53.726Z,97406.03
2022-08-17T07:38:24.857Z,97410.34
2022-08-17T07:41:02.191Z,97398.25
2022-08-17T07:43:37.004Z,97405.94
2022-08-17T07:46:43.340Z,97412.31
2022-08-17T07:49:09.896Z,97403.38
2022-08-17T07:51:39.680Z,97409.81
2022-08-17T07:54:15.394Z,97401.63
2022-08-17T07:56:54.259Z,97404.69
2022-08-17T07:59:23.434Z,97409.81
2022-08-17T08:02:17.172Z,97404.72
2022-08-17T08:05:02.404Z,97410.56
2022-08-17T08:07:34.770Z,97409.84
2022-08-17T08:10:01.370Z,97410.25
2022-08-17T08:12:33.885Z,97407.41
2022-08-17T08:15:17.428Z,97401.22
2022-08-17T08:17:47.022Z,97404.47
2022-08-17T08:20:51.379Z,97397.44
2022-08-17T08:23:30.694Z,97405.94
2022-08-17T08:26:20.474Z,97394.19
2022-08-17T08:29:01.490Z,97405.38
2022-08-17T08:31:42.648Z,97407.25
2022-08-17T08:35:00.513Z,97391.31
2022-08-17T08:37:35.782Z,97402.75
2022-08-17T08:40:16.706Z,97399.09
2022-08-17T08:43:00.458Z,97405.19
2022-08-17T08:45:39.007Z,97409.13
2022-08-17T08:48:52.934Z,97398.81
2022-08-17T08:51:32.474Z,97408.28
2022-08-17T08:54:31.740Z,97407.34
2022-08-17T08:57:24.360Z,97408.78
2022-08-17T09:00:17.000Z,97420.34
2022-08-17T09:03:06.267Z,97415.41
2022-08-17T09:05:42.743Z,97418.31
2022-08-17T09:08:09.514Z,97424.75
2022-08-17T09:11:06.100Z,97420.03
2022-08-17T09:13:54.313Z,97418.72
2022-08-17T09:16:45.213Z,97406.22
2022-08-17T09:19:23.367Z,97410.41
2022-08-17T09:21:54.730Z,97420.56
2022-08-17T09:26:48.613Z,97415.97
2022-08-17T09:29:17.531Z,97414.78
2022-08-17T09:31:53.453Z,97421.97
2022-08-17T09:34:33.257Z,97415.06
2022-08-17T09:37:26.495Z,97412.13
2022-08-17T09:40:11.912Z,97416.56
2022-08-17T09:42:56.196Z,97418.38
2022-08-17T09:45:42.726Z,97420.50
2022-08-17T09:48:20.777Z,97419.75
2022-08-17T09:51:15.627Z,97411.56
2022-08-17T09:53:44.730Z,97416.97
2022-08-17T09:56:14.182Z,97420.19
2022-08-17T09:59:22.959Z,97421.44
2022-08-17T10:02:20.538Z,97416.78
2022-08-17T10:05:06.781Z,97417.81
2022-08-17T10:07:40.061Z,97413.97
2022-08-17T10:10:29.911Z,97423.44
2022-08-17T10:13:22.617Z,97408.28
2022-08-17T10:16:09.285Z,97421.66
2022-08-17T10:18:54.129Z,97412.47
2022-08-17T10:21:41.932Z,97417.88
2022-08-17T10:24:30.014Z,97414.88
2022-08-17T10:26:59.911Z,97415.06
2022-08-17T10:29:48.932Z,97420.81
2022-08-17T10:32:37.938Z,97422.59
2022-08-17T10:35:57.237Z,97423.81
2022-08-17T10:38:46.908Z,97420.00
2022-08-17T10:41:26.165Z,97423.03
2022-08-17T10:44:38.602Z,97422.47
2022-08-17T10:47:08.391Z,97418.59
2022-08-17T10:49:38.516Z,97413.88
2022-08-17T10:52:22.013Z,97426.56
2022-08-17T10:54:51.372Z,97422.66
2022-08-17T10:57:27.109Z,97425.31
2022-08-17T10:59:58.994Z,97422.78
2022-08-17T11:02:39.589Z,97434.16
2022-08-17T11:05:08.971Z,97425.03
2022-08-17T11:07:35.542Z,97429.63
2022-08-17T11:10:18.884Z,97428.66
2022-08-17T11:13:01.477Z,97435.66
2022-08-17T11:15:43.931Z,97429.91
2022-08-17T11:18:46.595Z,97441.31
2022-08-17T11:21:52.055Z,97450.09
2022-08-17T11:27:35.312Z,97439.09
2022-08-17T11:30:14.765Z,97433.53
2022-08-17T11:32:48.696Z,97436.47
2022-08-17T11:35:22.706Z,97433.44
2022-08-17T11:38:28.473Z,97445.28
2022-08-17T11:41:04.371Z,97438.38
2022-08-17T11:44:02.823Z,97433.66
2022-08-17T11:47:22.902Z,97425.09
2022-08-17T11:50:27.994Z,97430.03
2022-08-17T11:52:55.176Z,97419.78
2022-08-17T11:55:37.524Z,97415.59
2022-08-17T11:58:17.989Z,97419.53
2022-08-17T12:00:49.633Z,97418.59
2022-08-17T12:03:23.826Z,97416.66
2022-08-17T12:06:01.128Z,97421.00
2022-08-17T12:08:32.671Z,97414.66
2022-08-17T12:11:55.488Z,97426.94
2022-08-17T12:14:13.751Z,97425.97
2022-08-17T12:16:44.666Z,97426.69
2022-08-17T12:19:21.161Z,97425.09
2022-08-17T12:22:05.808Z,97432.56
2022-08-17T12:24:51.456Z,97431.25
2022-08-17T12:28:02.058Z,97422.72
2022-08-17T12:30:21.888Z,97422.84
2022-08-17T12:32:48.875Z,97425.81
2022-08-17T12:35:33.171Z,97429.06
2022-08-17T12:38:01.237Z,97432.38
2022-08-17T12:40:31.655Z,97445.34
2022-08-17T12:43:01.918Z,97452.81
2022-08-17T12:45:31.694Z,97445.16
2022-08-17T12:48:08.680Z,97442.06
2022-08-17T12:50:38.576Z,97443.16
2022-08-17T12:53:32.782Z,97449.03
2022-08-17T12:56:00.366Z,97451.19
2022-08-17T12:58:32.593Z,97447.88
2022-08-17T13:01:04.458Z,97456.34
2022-08-17T13:03:39.904Z,97463.56
2022-08-17T13:06:09.645Z,97455.91
2022-08-17T13:08:43.191Z,97454.38
2022-08-17T13:11:22.402Z,97460.84
2022-08-17T13:13:55.216Z,97462.91
2022-08-17T13:16:30.841Z,97460.50
2022-08-17T13:19:15.557Z,97456.09
2022-08-17T13:22:02.095Z,97467.06
2022-08-17T13:24:38.525Z,97460.84
2022-08-17T13:28:39.143Z,97463.38
2022-08-17T13:31:32.709Z,97460.03
2022-08-17T13:34:38.680Z,97462.00
2022-08-17T13:37:34.720Z,97454.94
2022-08-17T13:40:10.559Z,97459.56
2022-08-17T13:42:50.444Z,97457.38
2022-08-17T13:45:36.444Z,97452.78
2022-08-17T13:48:08.735Z,97459.47
2022-08-17T13:50:51.885Z,97450.00
2022-08-17T13:53:33.209Z,97449.19
2022-08-17T13:56:36.912Z,97450.38
2022-08-17T13:59:02.817Z,97449.19
2022-08-17T14:01:35.587Z,97447.25
2022-08-17T14:04:08.070Z,97448.06
2022-08-17T14:06:53.208Z,97450.81
2022-08-17T14:09:24.348Z,97452.19
2022-08-17T14:11:54.092Z,97441.72
2022-08-17T14:14:23.310Z,97444.09
2022-08-17T14:16:52.001Z,97445.06
2022-08-17T14:19:22.108Z,97448.63
2022-08-17T14:21:49.311Z,97446.31
2022-08-17T14:24:29.959Z,97447.47
2022-08-17T14:26:57.646Z,97444.69
2022-08-17T14:29:27.922Z,97439.88
2022-08-17T14:31:55.896Z,97436.22
2022-08-17T14:34:24.212Z,97443.66
2022-08-17T14:36:52.094Z,97439.22
2022-08-17T14:39:20.664Z,97440.19
2022-08-17T14:41:47.504Z,97432.22
2022-08-17T14:44:15.760Z,97447.41
2022-08-17T14:46:44.587Z,97456.44
2022-08-17T14:49:13.025Z,97460.88
2022-08-17T14:51:44.082Z,97453.53
2022-08-17T14:54:25.583Z,97467.88
2022-08-17T14:57:23.383Z,97467.06
2022-08-17T14:59:47.379Z,97462.44
2022-08-17T15:02:17.483Z,97466.16
2022-08-17T15:04:47.749Z,97461.00
2022-08-17T15:07:17.210Z,97456.28
2022-08-17T15:09:45.670Z,97451.47
2022-08-17T15:12:22.209Z,97447.94
2022-08-17T15:14:48.777Z,97448.38
2022-08-17T15:17:15.588Z,97450.38
2022-08-17T15:19:42.221Z,97449.66
2022-08-17T15:22:27.136Z,97452.88
2022-08-17T15:24:56.018Z,97451.75
2022-08-17T15:29:35.078Z,97451.69
2022-08-17T15:32:02.072Z,97453.72
2022-08-17T15:34:28.692Z,97444.75
2022-08-17T15:36:55.469Z,97450.38
2022-08-17T15:39:22.259Z,97454.84
2022-08-17T15:41:58.466Z,97459.53
2022-08-17T15:44:32.646Z,97448.75
2022-08-17T15:47:01.586Z,97446.06
2022-08-17T15:49:28.273Z,97456.41
2022-08-17T15:51:54.828Z,97443.53
2022-08-17T15:54:22.788Z,97442.59
2022-08-17T15:56:50.335Z,97438.00
2022-08-17T15:59:16.914Z,97436.50
2022-08-17T16:03:13.556Z,97440.34
2022-08-17T16:04:31.739Z,97445.97
2022-08-17T16:07:00.087Z,97443.34
2022-08-17T16:09:27.627Z,97450.59
2022-08-17T16:11:56.350Z,97448.19
2022-08-17T16:14:33.688Z,97449.31
2022-08-17T16:17:02.014Z,97452.06
2022-08-17T16:19:28.580Z,97449.66
2022-08-17T16:21:55.189Z,97454.03
2022-08-17T16:24:22.028Z,97456.66
2022-08-17T16:26:48.719Z,97459.41
2022-08-17T16:29:15.398Z,97458.59
2022-08-17T16:31:43.336Z,97451.13
2022-08-17T16:34:17.899Z,97457.00
2022-08-17T16:36:55.664Z,97466.75
2022-08-17T16:39:25.522Z,97465.16
2022-08-17T16:41:52.269Z,97462.59
2022-08-17T16:44:21.814Z,97460.72
2022-08-17T16:46:48.818Z,97457.47
2022-08-17T16:49:35.168Z,97452.84
2022-08-17T16:52:04.409Z,97456.50
2022-08-17T16:54:31.067Z,97450.22
2022-08-17T16:56:57.739Z,97465.72
2022-08-17T16:59:31.337Z,97461.44
2022-08-17T17:02:13.120Z,97459.03
2022-08-17T17:05:06.843Z,97470.47
2022-08-17T17:07:38.419Z,97463.84
2022-08-17T17:10:09.459Z,97462.94
2022-08-17T17:13:02.277Z,97465.94
2022-08-17T17:15:33.024Z,97477.00
2022-08-17T17:18:07.017Z,97479.63
2022-08-17T17:20:47.452Z,97478.41
2022-08-17T17:23:23.370Z,97478.75
2022-08-17T17:26:18.515Z,97483.28
2022-08-17T17:30:53.641Z,97493.91
2022-08-17T17:33:31.127Z,97497.00
2022-08-17T17:36:08.237Z,97499.59
2022-08-17T17:38:49.617Z,97506.34
2022-08-17T17:41:26.348Z,97505.38
2022-08-17T17:44:02.809Z,97507.97
2022-08-17T17:46:38.072Z,97504.22
2022-08-17T17:49:06.203Z,97510.81
2022-08-17T17:52:10.834Z,97508.38
2022-08-17T17:55:13.532Z,97504.25
2022-08-17T17:57:56.018Z,97502.13
2022-08-17T18:00:28.430Z,97508.06
2022-08-17T18:03:24.799Z,97506.28
2022-08-17T18:06:39.961Z,97509.50
2022-08-17T18:09:43.978Z,97524.16
2022-08-17T18:13:18.362Z,97535.41
2022-08-17T18:15:57.753Z,97523.06
2022-08-17T18:18:39.618Z,97520.59
2022-08-17T18:21:20.105Z,97527.25
2022-08-17T18:24:03.645Z,97523.44
2022-08-17T18:26:34.060Z,97524.81
2022-08-17T18:29:11.829Z,97527.19
2022-08-17T18:31:39.146Z,97529.38
2022-08-17T18:34:46.618Z,97534.28
2022-08-17T18:37:32.223Z,97538.25
2022-08-17T18:39:59.548Z,97535.19
2022-08-17T18:42:30.766Z,97536.44
2022-08-17T18:44:57.563Z,97538.88
2022-08-17T18:47:29.394Z,97533.22
2022-08-17T18:49:59.210Z,97534.25
2022-08-17T18:52:32.351Z,97526.75
2022-08-17T18:55:47.345Z,97527.97
2022-08-17T18:58:24.540Z,97537.50
2022-08-17T19:00:54.700Z,97530.31
2022-08-17T19:03:39.461Z,97526.53
2022-08-17T19:06:31.216Z,97534.19
2022-08-17T19:08:58.496Z,97536.53
2022-08-17T19:11:32.989Z,97545.84
2022-08-17T19:14:12.430Z,97549.19
2022-08-17T19:16:51.974Z,97551.19
2022-08-17T19:19:34.358Z,97543.81
2022-08-17T19:22:28.369Z,97554.63
2022-08-17T19:25:09.327Z,97560.59
2022-08-17T19:31:47.398Z,97558.38
2022-08-17T19:34:17.359Z,97553.22
2022-08-17T19:37:07.096Z,97557.66
2022-08-17T19:39:41.125Z,97560.81
2022-08-17T19:42:19.745Z,97557.19
2022-08-17T19:45:36.686Z,97564.47
2022-08-17T19:48:52.051Z,97577.66
2022-08-17T19:51:28.259Z,97575.59
2022-08-17T19:54:25.875Z,97575.69
2022-08-17T19:57:29.933Z,97583.47
2022-08-17T20:00:23.586Z,97582.00
2022-08-17T20:03:23.181Z,97584.31
2022-08-17T20:06:12.231Z,97589.56
2022-08-17T20:09:00.097Z,97588.31
2022-08-17T20:11:39.104Z,97596.22
2022-08-17T20:14:13.431Z,97592.38
2022-08-17T20:16:40.703Z,97593.19
2022-08-17T20:19:41.763Z,97593.94
2022-08-17T20:22:46.743Z,97592.72
2022-08-17T20:25:30.898Z,97597.31
2022-08-17T20:28:18.017Z,97601.66
2022-08-17T20:30:45.202Z,97593.88
2022-08-17T20:33:36.664Z,97588.84
2022-08-17T20:36:31.773Z,97590.69
2022-08-17T20:39:02.220Z,97600.00
2022-08-17T20:41:30.706Z,97600.00
2022-08-17T20:43:57.556Z,97598.41
2022-08-17T20:46:36.496Z,97593.31
2022-08-17T20:49:09.021Z,97601.59
2022-08-17T20:52:01.590Z,97601.47
2022-08-17T20:54:49.666Z,97598.66
2022-08-17T20:57:31.832Z,97602.94
2022-08-17T21:00:03.690Z,97608.03
2022-08-17T21:02:33.776Z,97613.91
2022-08-17T21:05:07.242Z,97622.56
2022-08-17T21:07:43.141Z,97624.59
2022-08-17T21:10:15.427Z,97624.13
2022-08-17T21:13:05.385Z,97637.84
2022-08-17T21:15:52.871Z,97634.88
2022-08-17T21:19:04.766Z,97629.50
2022-08-17T21:22:02.568Z,97631.13
2022-08-17T21:24:45.704Z,97637.09
2022-08-17T21:27:29.268Z,97630.22
2022-08-17T21:32:34.086Z,97627.09
2022-08-17T21:35:07.106Z,97625.34
2022-08-17T21:37:48.105Z,97614.59
2022-08-17T21:40:18.083Z,97623.72
2022-08-17T21:43:18.868Z,97612.72
2022-08-17T21:46:23.357Z,97606.97
2022-08-17T21:48:54.543Z,97610.00
2022-08-17T21:51:28.253Z,97610.34
2022-08-17T21:54:01.587Z,97604.66
2022-08-17T21:56:36.300Z,97606.44
2022-08-17T21:59:05.923Z,97604.66
2022-08-17T22:01:39.520Z,97597.44
2022-08-17T22:04:19.873Z,97596.66
2022-08-17T22:06:56.712Z,97590.91
2022-08-17T22:09:35.892Z,97586.50
2022-08-17T22:12:15.528Z,97583.47
2022-08-17T22:14:56.396Z,97586.78
2022-08-17T22:17:27.874Z,97587.44
2022-08-17T22:20:17.345Z,97583.97
2022-08-17T22:23:08.458Z,97583.56
2022-08-17T22:25:41.815Z,97578.50
2022-08-17T22:28:11.204Z,97580.75
2022-08-17T22:30:41.059Z,97581.88
2022-08-17T22:33:36.253Z,97581.09
2022-08-17T22:36:30.941Z,97574.53
2022-08-17T22:39:11.240Z,97570.19
2022-08-17T22:42:00.303Z,97573.97
2022-08-17T22:44:35.661Z,97563.56
2022-08-17T22:47:14.490Z,97560.22
2022-08-17T22:49:58.010Z,97561.75
2022-08-17T22:53:02.266Z,97554.47
2022-08-17T22:55:52.079Z,97558.75
2022-08-17T22:58:40.379Z,97555.13
2022-08-17T23:01:27.840Z,97550.47
2022-08-17T23:04:03.186Z,97559.78
2022-08-17T23:06:33.948Z,97549.97
2022-08-17T23:09:03.921Z,97556.75
2022-08-17T23:11:48.728Z,97548.66
2022-08-17T23:14:19.235Z,97553.88
2022-08-17T23:16:46.689Z,97565.06
2022-08-17T23:19:16.355Z,97559.69
2022-08-17T23:21:46.915Z,97554.00
2022-08-17T23:24:25.816Z,97555.91
2022-08-17T23:26:53.438Z,97561.66
2022-08-17T23:29:23.168Z,97564.47
2022-08-17T23:49:10.848Z,97550.63
2022-08-17T23:51:55.947Z,97546.00
2022-08-17T23:54:40.523Z,97553.09
2022-08-17T23:57:09.381Z,97559.59
2022-08-17T23:59:37.467Z,97567.47
